createdAt,value
2017-11-29T00:01:32.361Z,15.38
2017-11-29T00:04:02.073Z,11.55
2017-11-29T00:06:31.806Z,12.20
2017-11-29T00:09:00.832Z,13.02
2017-11-29T00:11:29.955Z,11.85
2017-11-29T00:13:58.846Z,13.48
2017-11-29T00:16:27.763Z,14.00
2017-11-29T00:18:56.751Z,11.73
2017-11-29T00:21:26.463Z,11.60
2017-11-29T00:23:56.162Z,12.30
2017-11-29T00:26:26.738Z,12.18
2017-11-29T00:28:55.711Z,12.13
2017-11-29T00:31:24.752Z,11.63
2017-11-29T00:33:53.683Z,9.73
2017-11-29T00:36:22.841Z,13.18
2017-11-29T00:38:51.804Z,10.63
2017-11-29T00:41:20.987Z,12.82
2017-11-29T00:43:49.927Z,10.00
2017-11-29T00:46:18.971Z,16.15
2017-11-29T00:48:47.906Z,12.32
2017-11-29T00:51:18.746Z,12.07
2017-11-29T00:53:47.655Z,14.55
2017-11-29T00:56:17.407Z,14.90
2017-11-29T00:58:47.334Z,17.15
2017-11-29T01:01:20.436Z,15.73
2017-11-29T01:03:49.463Z,17.52
2017-11-29T01:06:19.186Z,18.98
2017-11-29T01:08:48.774Z,18.40
2017-11-29T01:11:17.789Z,15.02
2017-11-29T01:13:47.514Z,15.68
2017-11-29T01:16:16.561Z,16.15
2017-11-29T01:18:46.277Z,19.50
2017-11-29T01:21:19.971Z,16.83
2017-11-29T01:23:48.868Z,20.00
2017-11-29T01:26:17.888Z,24.50
2017-11-29T01:28:46.847Z,18.95
2017-11-29T01:31:15.812Z,20.35
2017-11-29T01:33:45.104Z,21.48
2017-11-29T01:36:14.008Z,22.05
2017-11-29T01:38:42.925Z,23.15
2017-11-29T01:41:11.993Z,18.65
2017-11-29T01:43:41.015Z,24.25
2017-11-29T01:46:10.016Z,25.37
2017-11-29T01:48:39.781Z,19.42
2017-11-29T01:51:08.802Z,21.37
2017-11-29T01:53:37.742Z,22.67
2017-11-29T01:56:06.633Z,19.73
2017-11-29T01:58:36.615Z,20.37
2017-11-29T02:01:05.605Z,18.00
2017-11-29T02:03:34.461Z,23.95
2017-11-29T02:06:03.519Z,18.02
2017-11-29T02:08:32.411Z,19.05
2017-11-29T02:11:01.388Z,18.35
2017-11-29T02:13:31.045Z,19.23
2017-11-29T02:15:59.931Z,24.10
2017-11-29T02:18:29.088Z,18.52
2017-11-29T02:20:58.811Z,18.83
2017-11-29T02:23:27.941Z,17.83
2017-11-29T02:25:57.034Z,19.42
2017-11-29T02:28:26.124Z,16.75
2017-11-29T02:30:55.336Z,20.95
2017-11-29T02:33:24.362Z,16.95
2017-11-29T02:35:53.504Z,18.55
2017-11-29T02:38:22.759Z,19.10
2017-11-29T02:42:59.913Z,17.23
2017-11-29T02:45:29.120Z,15.65
2017-11-29T02:47:58.192Z,21.45
2017-11-29T02:50:27.317Z,20.27
2017-11-29T02:52:56.247Z,20.37
2017-11-29T02:55:26.130Z,20.40
2017-11-29T02:57:55.431Z,20.33
2017-11-29T03:00:24.667Z,14.55
2017-11-29T03:02:56.791Z,15.85
2017-11-29T03:05:25.759Z,15.75
2017-11-29T03:07:54.626Z,15.18
2017-11-29T03:10:23.622Z,16.77
2017-11-29T03:12:52.660Z,21.85
2017-11-29T03:15:21.708Z,16.98
2017-11-29T03:17:50.789Z,18.62
2017-11-29T03:20:20.615Z,19.20
2017-11-29T03:22:49.525Z,25.80
2017-11-29T03:25:18.566Z,15.45
2017-11-29T03:27:47.502Z,17.15
2017-11-29T03:30:16.955Z,16.95
2017-11-29T03:32:45.969Z,14.02
2017-11-29T03:35:15.696Z,17.98
2017-11-29T03:37:44.609Z,17.48
2017-11-29T03:40:13.715Z,16.10
2017-11-29T03:42:42.697Z,15.68
2017-11-29T03:45:14.655Z,15.45
2017-11-29T03:47:43.818Z,20.58
2017-11-29T03:50:13.259Z,16.17
2017-11-29T03:52:42.140Z,13.98
2017-11-29T03:55:11.526Z,14.60
2017-11-29T03:57:40.402Z,17.37
2017-11-29T04:00:10.412Z,17.65
2017-11-29T04:02:40.130Z,17.92
2017-11-29T04:05:12.336Z,18.30
2017-11-29T04:07:41.277Z,18.27
2017-11-29T04:10:14.729Z,16.15
2017-11-29T04:12:44.438Z,19.33
2017-11-29T04:15:13.860Z,20.73
2017-11-29T04:17:42.834Z,15.55
2017-11-29T04:20:12.474Z,16.98
2017-11-29T04:22:41.418Z,21.83
2017-11-29T04:25:11.040Z,21.02
2017-11-29T04:27:40.058Z,17.60
2017-11-29T04:30:11.035Z,16.70
2017-11-29T04:32:40.070Z,19.52
2017-11-29T04:35:11.978Z,18.80
2017-11-29T04:37:41.730Z,17.90
2017-11-29T04:40:10.827Z,20.45
2017-11-29T04:42:39.683Z,18.60
2017-11-29T04:45:12.659Z,20.30
2017-11-29T04:47:41.606Z,18.52
2017-11-29T04:50:11.287Z,19.15
2017-11-29T04:52:40.210Z,20.90
2017-11-29T04:55:11.013Z,18.00
2017-11-29T04:57:40.049Z,16.23
2017-11-29T05:00:12.124Z,17.23
2017-11-29T05:02:41.059Z,18.83
2017-11-29T05:05:11.895Z,17.05
2017-11-29T05:07:41.747Z,18.20
2017-11-29T05:10:11.665Z,14.68
2017-11-29T05:12:40.557Z,22.00
2017-11-29T05:15:12.962Z,18.08
2017-11-29T05:17:44.040Z,18.20
2017-11-29T05:20:13.575Z,16.67
2017-11-29T05:22:42.571Z,17.92
2017-11-29T05:25:21.883Z,19.10
2017-11-29T05:27:51.162Z,14.93
2017-11-29T05:30:20.842Z,17.67
2017-11-29T05:32:50.099Z,21.40
2017-11-29T05:35:20.138Z,17.08
2017-11-29T05:37:49.063Z,25.55
2017-11-29T05:40:18.927Z,18.40
2017-11-29T05:42:47.897Z,26.70
2017-11-29T05:45:17.029Z,18.75
2017-11-29T05:47:46.050Z,22.48
2017-11-29T05:50:17.026Z,22.40
2017-11-29T05:52:46.082Z,21.42
2017-11-29T05:55:16.053Z,22.92
2017-11-29T05:57:44.978Z,17.15
2017-11-29T06:00:16.685Z,24.12
2017-11-29T06:02:45.638Z,22.10
2017-11-29T06:05:15.814Z,22.67
2017-11-29T06:07:44.871Z,21.27
2017-11-29T06:10:14.834Z,22.48
2017-11-29T06:12:43.879Z,20.77
2017-11-29T06:15:13.250Z,22.65
2017-11-29T06:17:42.985Z,22.90
2017-11-29T06:20:15.453Z,27.77
2017-11-29T06:22:45.799Z,23.87
2017-11-29T06:25:17.573Z,25.50
2017-11-29T06:27:47.468Z,25.90
2017-11-29T06:30:16.670Z,29.67
2017-11-29T06:32:45.696Z,24.33
2017-11-29T06:35:15.828Z,26.33
2017-11-29T06:37:44.706Z,28.80
2017-11-29T06:40:15.949Z,30.05
2017-11-29T06:42:44.856Z,32.60
2017-11-29T06:45:15.809Z,27.87
2017-11-29T06:47:46.573Z,28.30
2017-11-29T06:50:18.362Z,27.87
2017-11-29T06:52:47.935Z,33.35
2017-11-29T06:55:18.635Z,34.75
2017-11-29T06:57:48.942Z,29.23
2017-11-29T07:00:20.584Z,30.30
2017-11-29T07:02:49.534Z,28.42
2017-11-29T07:05:18.608Z,28.55
2017-11-29T07:07:48.326Z,32.72
2017-11-29T07:10:18.104Z,30.08
2017-11-29T07:12:47.012Z,25.90
2017-11-29T07:15:16.061Z,25.50
2017-11-29T07:17:45.521Z,23.38
2017-11-29T07:20:16.510Z,30.88
2017-11-29T07:22:46.071Z,23.27
2017-11-29T07:25:16.330Z,28.23
2017-11-29T07:27:46.719Z,24.77
2017-11-29T07:30:18.034Z,25.85
2017-11-29T07:32:47.012Z,26.33
2017-11-29T07:35:16.249Z,26.85
2017-11-29T07:37:46.048Z,25.33
2017-11-29T07:40:16.432Z,25.62
2017-11-29T07:42:45.668Z,22.92
2017-11-29T07:45:14.958Z,22.15
2017-11-29T07:47:44.002Z,22.23
2017-11-29T07:50:21.407Z,21.30
2017-11-29T07:52:50.364Z,17.65
2017-11-29T07:55:27.566Z,20.83
2017-11-29T07:57:56.566Z,22.00
2017-11-29T08:00:26.779Z,20.05
2017-11-29T08:02:55.780Z,16.17
2017-11-29T08:05:24.928Z,13.85
2017-11-29T08:09:14.084Z,12.93
2017-11-29T08:11:43.330Z,11.75
2017-11-29T08:14:12.395Z,11.35
2017-11-29T08:16:41.343Z,12.65
2017-11-29T08:19:10.326Z,21.90
2017-11-29T08:21:39.514Z,25.35
2017-11-29T08:24:08.559Z,23.75
2017-11-29T08:26:37.591Z,21.52
2017-11-29T08:29:07.433Z,21.00
2017-11-29T08:31:37.672Z,21.87
2017-11-29T08:34:09.814Z,18.35
2017-11-29T08:36:38.942Z,19.70
2017-11-29T08:39:12.004Z,21.17
2017-11-29T08:41:43.066Z,20.77
2017-11-29T08:44:12.234Z,17.98
2017-11-29T08:46:42.408Z,14.70
2017-11-29T08:49:11.549Z,13.55
2017-11-29T08:51:40.712Z,15.18
2017-11-29T08:54:11.264Z,15.77
2017-11-29T08:56:41.119Z,16.48
2017-11-29T08:59:14.274Z,17.40
2017-11-29T09:01:43.676Z,17.65
2017-11-29T09:04:12.837Z,15.75
2017-11-29T09:06:43.061Z,17.27
2017-11-29T09:09:13.098Z,15.65
2017-11-29T09:11:43.361Z,18.83
2017-11-29T09:14:14.264Z,21.35
2017-11-29T09:16:45.601Z,17.50
2017-11-29T09:19:15.559Z,17.80
2017-11-29T09:21:44.737Z,24.55
2017-11-29T09:24:13.792Z,22.65
2017-11-29T09:26:43.861Z,19.70
2017-11-29T09:29:13.760Z,21.95
2017-11-29T09:31:42.971Z,22.00
2017-11-29T09:34:12.089Z,21.37
2017-11-29T09:36:42.295Z,22.05
2017-11-29T09:39:11.862Z,25.98
2017-11-29T09:41:42.020Z,21.98
2017-11-29T09:44:11.842Z,21.55
2017-11-29T09:46:46.242Z,22.00
2017-11-29T09:49:16.310Z,28.55
2017-11-29T09:51:45.592Z,24.08
2017-11-29T09:54:14.804Z,24.73
2017-11-29T09:56:44.826Z,26.23
2017-11-29T09:59:15.543Z,28.87
2017-11-29T10:01:45.090Z,25.90
2017-11-29T10:04:14.326Z,24.05
2017-11-29T10:06:43.793Z,30.23
2017-11-29T10:09:14.091Z,28.70
2017-11-29T10:11:43.634Z,28.27
2017-11-29T10:14:14.100Z,29.90
2017-11-29T10:16:44.231Z,28.87
2017-11-29T10:19:13.785Z,29.58
2017-11-29T10:21:52.576Z,32.08
2017-11-29T10:24:21.896Z,32.17
2017-11-29T10:26:51.510Z,26.75
2017-11-29T10:29:20.987Z,28.20
2017-11-29T10:31:50.881Z,32.05
2017-11-29T10:34:21.017Z,24.85
2017-11-29T10:36:52.244Z,29.17
2017-11-29T10:39:21.489Z,24.23
2017-11-29T10:41:52.846Z,28.08
2017-11-29T10:44:23.541Z,29.73
2017-11-29T10:46:53.495Z,30.17
2017-11-29T10:49:22.762Z,23.87
2017-11-29T10:51:52.738Z,21.87
2017-11-29T10:54:24.697Z,22.42
2017-11-29T10:56:54.902Z,21.15
2017-11-29T10:59:25.670Z,19.33
2017-11-29T11:01:55.503Z,18.35
2017-11-29T11:04:33.816Z,20.48
2017-11-29T11:07:13.376Z,24.37
2017-11-29T11:09:45.082Z,22.55
2017-11-29T11:12:19.589Z,21.92
2017-11-29T11:14:48.946Z,21.73
2017-11-29T11:17:22.349Z,23.35
2017-11-29T11:19:51.996Z,23.95
2017-11-29T11:22:23.647Z,22.90
2017-11-29T11:24:52.815Z,21.08
2017-11-29T11:27:22.939Z,24.45
2017-11-29T11:29:52.120Z,18.60
2017-11-29T11:32:23.394Z,23.75
2017-11-29T11:34:54.502Z,24.40
2017-11-29T11:37:25.589Z,21.55
2017-11-29T11:39:56.451Z,22.92
2017-11-29T11:42:28.785Z,21.50
2017-11-29T11:44:58.729Z,21.95
2017-11-29T11:47:30.914Z,21.50
2017-11-29T11:52:50.252Z,20.40
2017-11-29T11:55:23.770Z,18.95
2017-11-29T11:57:53.872Z,21.08
2017-11-29T12:00:30.118Z,19.42
2017-11-29T12:03:00.067Z,22.55
2017-11-29T12:05:30.184Z,22.92
2017-11-29T12:08:00.513Z,23.42
2017-11-29T12:10:34.308Z,18.48
2017-11-29T12:13:05.191Z,19.62
2017-11-29T12:15:41.322Z,21.08
2017-11-29T12:18:12.029Z,19.98
2017-11-29T12:20:44.426Z,18.80
2017-11-29T12:23:13.740Z,20.35
2017-11-29T12:25:44.281Z,19.00
2017-11-29T12:28:15.519Z,18.35
2017-11-29T12:30:45.678Z,18.73
2017-11-29T12:33:19.101Z,21.90
2017-11-29T12:35:48.748Z,19.87
2017-11-29T12:38:17.873Z,21.35
2017-11-29T12:40:49.224Z,18.02
2017-11-29T12:43:50.078Z,18.92
2017-11-29T12:46:20.215Z,22.80
2017-11-29T12:51:04.166Z,19.17
2017-11-29T12:53:34.807Z,18.33
2017-11-29T12:56:05.915Z,16.65
2017-11-29T12:58:36.762Z,18.52
2017-11-29T13:01:12.172Z,16.92
2017-11-29T13:03:41.589Z,15.63
2017-11-29T13:06:11.751Z,14.73
2017-11-29T13:08:42.242Z,17.30
2017-11-29T13:11:14.088Z,13.25
2017-11-29T13:13:44.070Z,18.58
2017-11-29T13:19:47.082Z,13.98
2017-11-29T13:22:17.082Z,15.48
2017-11-29T13:24:46.118Z,13.85
2017-11-29T13:27:16.310Z,17.37
2017-11-29T13:29:47.315Z,17.23
2017-11-29T13:32:20.195Z,17.87
2017-11-29T13:34:49.853Z,15.07
2017-11-29T13:37:19.179Z,17.37
2017-11-29T13:39:48.332Z,15.30
2017-11-29T13:42:18.634Z,14.60
2017-11-29T13:44:48.146Z,15.77
2017-11-29T13:47:20.380Z,14.63
2017-11-29T13:49:54.355Z,17.15
2017-11-29T13:52:24.474Z,16.33
2017-11-29T13:54:59.897Z,15.43
2017-11-29T13:57:30.775Z,13.95
2017-11-29T13:59:59.781Z,16.02
2017-11-29T14:02:32.671Z,17.27
2017-11-29T14:07:43.444Z,13.55
2017-11-29T14:10:17.242Z,13.50
2017-11-29T14:12:47.123Z,14.00
2017-11-29T14:15:19.800Z,15.48
2017-11-29T14:17:48.838Z,15.07
2017-11-29T14:20:19.959Z,15.80
2017-11-29T14:22:49.232Z,15.98
2017-11-29T14:25:18.377Z,14.65
2017-11-29T14:27:49.413Z,13.23
2017-11-29T14:30:22.039Z,14.23
2017-11-29T14:32:52.063Z,13.23
2017-11-29T14:35:21.416Z,16.37
2017-11-29T14:37:51.298Z,14.57
2017-11-29T14:40:20.669Z,15.07
2017-11-29T14:42:50.546Z,13.65
2017-11-29T14:45:30.902Z,13.52
2017-11-29T14:48:01.392Z,13.85
2017-11-29T14:50:31.316Z,16.35
2017-11-29T14:53:00.990Z,14.18
2017-11-29T14:55:31.232Z,15.07
2017-11-29T14:58:00.022Z,12.85
2017-11-29T15:00:30.244Z,15.95
2017-11-29T15:02:59.520Z,15.02
2017-11-29T15:05:28.679Z,15.73
2017-11-29T15:07:57.651Z,17.52
2017-11-29T15:10:27.681Z,15.73
2017-11-29T15:12:57.280Z,14.82
2017-11-29T15:15:30.907Z,18.45
2017-11-29T15:18:01.005Z,15.27
2017-11-29T15:20:30.875Z,16.52
2017-11-29T15:22:59.995Z,14.18
2017-11-29T15:25:29.322Z,16.42
2017-11-29T15:28:00.630Z,17.37
2017-11-29T15:30:38.484Z,13.98
2017-11-29T15:33:11.938Z,15.27
2017-11-29T15:35:44.643Z,16.17
2017-11-29T15:38:14.451Z,14.38
2017-11-29T15:40:46.682Z,16.08
2017-11-29T15:43:16.799Z,15.77
2017-11-29T15:45:45.951Z,16.10
2017-11-29T15:48:15.046Z,16.58
2017-11-29T15:50:45.613Z,15.57
2017-11-29T15:53:14.877Z,15.80
2017-11-29T15:55:46.572Z,16.15
2017-11-29T15:58:16.495Z,17.58
2017-11-29T16:00:49.415Z,16.45
2017-11-29T16:03:18.467Z,21.95
2017-11-29T16:05:47.756Z,15.48
2017-11-29T16:08:16.858Z,18.35
2017-11-29T16:10:47.026Z,17.48
2017-11-29T16:13:16.331Z,17.42
2017-11-29T16:15:45.749Z,16.80
2017-11-29T16:18:16.474Z,17.90
2017-11-29T16:20:46.818Z,16.92
2017-11-29T16:23:16.595Z,17.92
2017-11-29T16:25:45.898Z,19.42
2017-11-29T16:28:17.005Z,18.08
2017-11-29T16:33:14.828Z,18.02
2017-11-29T16:35:44.100Z,18.60
2017-11-29T16:38:13.185Z,20.50
2017-11-29T16:40:43.779Z,18.15
2017-11-29T16:43:13.607Z,20.00
2017-11-29T16:45:42.794Z,18.48
2017-11-29T16:48:14.096Z,18.25
2017-11-29T16:50:47.192Z,20.98
2017-11-29T16:53:16.406Z,21.52
2017-11-29T16:55:45.752Z,20.33
2017-11-29T16:58:16.509Z,21.17
2017-11-29T17:00:49.075Z,19.25
2017-11-29T17:03:19.689Z,20.90
2017-11-29T17:05:54.989Z,19.92
2017-11-29T17:08:25.420Z,18.12
2017-11-29T17:10:55.536Z,21.70
2017-11-29T17:13:25.410Z,20.90
2017-11-29T17:15:54.580Z,21.42
2017-11-29T17:18:24.074Z,19.73
2017-11-29T17:20:54.156Z,20.17
2017-11-29T17:23:23.527Z,19.73
2017-11-29T17:25:52.640Z,19.42
2017-11-29T17:28:21.794Z,18.92
2017-11-29T17:30:52.703Z,19.77
2017-11-29T17:33:22.764Z,22.27
2017-11-29T17:35:52.796Z,20.92
2017-11-29T17:38:22.930Z,19.23
2017-11-29T17:40:52.969Z,24.55
2017-11-29T17:43:23.939Z,20.27
2017-11-29T17:45:53.261Z,22.15
2017-11-29T17:48:24.059Z,20.35
2017-11-29T17:50:54.092Z,18.70
2017-11-29T17:53:24.334Z,21.20
2017-11-29T17:55:53.552Z,21.45
2017-11-29T17:58:22.638Z,20.85
2017-11-29T18:00:53.803Z,22.30
2017-11-29T18:03:23.231Z,20.90
2017-11-29T18:05:53.158Z,20.58
2017-11-29T18:08:22.245Z,23.42
2017-11-29T18:10:52.322Z,23.42
2017-11-29T18:13:22.641Z,24.48
2017-11-29T18:15:52.783Z,25.65
2017-11-29T18:18:21.893Z,28.87
2017-11-29T18:20:52.242Z,23.95
2017-11-29T18:23:22.631Z,24.87
2017-11-29T18:25:52.023Z,26.83
2017-11-29T18:28:23.033Z,29.20
2017-11-29T18:30:55.050Z,25.02
2017-11-29T18:33:24.094Z,25.00
2017-11-29T18:35:53.192Z,23.58
2017-11-29T18:38:22.332Z,26.10
2017-11-29T18:40:51.776Z,24.45
2017-11-29T18:43:20.956Z,25.95
2017-11-29T18:45:50.970Z,26.02
2017-11-29T18:48:22.019Z,29.10
2017-11-29T18:50:52.092Z,24.80
2017-11-29T18:53:21.208Z,25.85
2017-11-29T18:55:50.309Z,25.00
2017-11-29T18:58:20.613Z,26.73
2017-11-29T19:00:51.555Z,26.23
2017-11-29T19:03:20.753Z,25.15
2017-11-29T19:05:49.846Z,24.42
2017-11-29T19:08:19.026Z,23.15
2017-11-29T19:10:49.452Z,25.40
2017-11-29T19:13:18.632Z,26.58
2017-11-29T19:15:48.045Z,24.55
2017-11-29T19:18:18.093Z,23.77
2017-11-29T19:20:47.923Z,22.02
2017-11-29T19:23:19.809Z,23.65
2017-11-29T19:25:50.541Z,24.52
2017-11-29T19:28:19.884Z,24.65
2017-11-29T19:30:49.657Z,22.40
2017-11-29T19:33:27.614Z,24.80
2017-11-29T19:35:56.695Z,25.52
2017-11-29T19:38:25.729Z,23.83
2017-11-29T19:40:55.536Z,22.60
2017-11-29T19:43:25.585Z,25.20
2017-11-29T19:45:54.583Z,24.23
2017-11-29T19:48:25.109Z,25.45
2017-11-29T19:50:55.048Z,24.98
2017-11-29T19:53:24.728Z,22.30
2017-11-29T19:55:53.755Z,23.42
2017-11-29T19:58:23.082Z,25.15
2017-11-29T20:00:53.514Z,24.73
2017-11-29T20:03:24.020Z,22.62
2017-11-29T20:05:53.276Z,22.98
2017-11-29T20:08:22.409Z,24.70
2017-11-29T20:10:51.764Z,24.42
2017-11-29T20:13:21.577Z,25.45
2017-11-29T20:15:51.680Z,22.95
2017-11-29T20:18:21.732Z,26.75
2017-11-29T20:20:50.804Z,20.15
2017-11-29T20:23:20.005Z,23.12
2017-11-29T20:25:49.307Z,22.20
2017-11-29T20:28:18.398Z,24.02
2017-11-29T20:30:49.012Z,22.20
2017-11-29T20:33:19.538Z,19.87
2017-11-29T20:35:54.216Z,26.48
2017-11-29T20:38:23.428Z,21.45
2017-11-29T20:40:52.562Z,24.52
2017-11-29T20:43:21.636Z,26.12
2017-11-29T20:45:51.567Z,24.30
2017-11-29T20:48:20.872Z,27.67
2017-11-29T20:50:50.841Z,21.58
2017-11-29T20:53:20.564Z,22.05
2017-11-29T20:55:49.768Z,22.87
2017-11-29T20:58:19.084Z,25.67
2017-11-29T21:00:48.549Z,20.70
2017-11-29T21:03:17.881Z,23.17
2017-11-29T21:05:47.479Z,21.65
2017-11-29T21:08:16.775Z,26.00
2017-11-29T21:10:46.253Z,23.62
2017-11-29T21:13:15.374Z,23.70
2017-11-29T21:15:44.772Z,22.62
2017-11-29T21:18:14.077Z,21.83
2017-11-29T21:20:44.239Z,23.08
2017-11-29T21:23:14.287Z,26.52
2017-11-29T21:26:13.820Z,24.55
2017-11-29T21:28:42.852Z,30.55
2017-11-29T21:31:12.696Z,29.17
2017-11-29T21:33:41.768Z,27.48
2017-11-29T21:36:13.359Z,24.55
2017-11-29T21:38:43.170Z,24.60
2017-11-29T21:41:14.019Z,22.83
2017-11-29T21:43:54.014Z,24.60
2017-11-29T21:46:24.141Z,23.12
2017-11-29T21:49:04.538Z,22.15
2017-11-29T21:51:33.574Z,18.50
2017-11-29T21:54:03.979Z,23.23
2017-11-29T21:56:34.244Z,24.45
2017-11-29T21:59:03.382Z,22.55
2017-11-29T22:01:32.652Z,23.33
2017-11-29T22:04:01.916Z,23.10
2017-11-29T22:06:34.598Z,25.95
2017-11-29T22:13:33.055Z,27.45
2017-11-29T22:25:18.089Z,27.65
2017-11-29T22:27:47.569Z,29.75
2017-11-29T22:30:16.824Z,29.83
2017-11-29T22:37:14.785Z,29.15
2017-11-29T22:39:43.764Z,32.55
2017-11-29T22:42:13.376Z,34.60
2017-11-29T22:49:22.527Z,35.70
2017-11-29T22:51:51.443Z,31.30
2017-11-29T22:54:20.426Z,35.65
2017-11-29T22:56:49.478Z,30.90
2017-11-29T22:59:19.343Z,33.85
2017-11-29T23:01:48.436Z,32.20
2017-11-29T23:04:17.438Z,33.92
2017-11-29T23:06:46.358Z,30.50
2017-11-29T23:18:24.481Z,29.50
2017-11-29T23:21:04.032Z,31.40
2017-11-29T23:23:33.054Z,36.45
2017-11-29T23:26:12.327Z,33.88
2017-11-29T23:28:42.190Z,33.42
2017-11-29T23:35:43.009Z,30.73
2017-11-29T23:38:13.261Z,33.05
2017-11-29T23:40:42.262Z,34.50
2017-11-29T23:52:20.710Z,31.62
2017-11-29T23:54:49.726Z,34.95
2017-11-29T23:57:28.870Z,34.95
2017-11-29T23:59:57.851Z,35.03
